sensor_id;sensor_type;location;lat;lon;timestamp;pressure;altitude;pressure_sealevel;temperature;humidity
71716;BME280;59568;52.128;5.434;2023-05-18T00:01:27;103015.06;;;6.23;71.19
71716;BME280;59568;52.128;5.434;2023-05-18T00:03:56;103011.88;;;6.20;71.42
71716;BME280;59568;52.128;5.434;2023-05-18T00:06:24;103014.06;;;6.17;71.46
71716;BME280;59568;52.128;5.434;2023-05-18T00:08:51;103007.69;;;6.13;71.68
71716;BME280;59568;52.128;5.434;2023-05-18T00:11:18;103008.09;;;6.10;71.75
71716;BME280;59568;52.128;5.434;2023-05-18T00:13:45;103004.31;;;6.06;71.75
71716;BME280;59568;52.128;5.434;2023-05-18T00:16:11;103015.88;;;6.03;71.95
71716;BME280;59568;52.128;5.434;2023-05-18T00:18:41;103013.47;;;6.02;72.24
71716;BME280;59568;52.128;5.434;2023-05-18T00:21:08;103001.50;;;6.00;71.82
71716;BME280;59568;52.128;5.434;2023-05-18T00:23:35;103010.06;;;5.94;71.92
71716;BME280;59568;52.128;5.434;2023-05-18T00:26:05;103013.88;;;5.92;71.85
71716;BME280;59568;52.128;5.434;2023-05-18T00:28:32;103017.47;;;5.91;71.84
71716;BME280;59568;52.128;5.434;2023-05-18T00:30:59;103017.66;;;5.89;71.83
71716;BME280;59568;52.128;5.434;2023-05-18T00:33:26;103013.84;;;5.85;72.15
71716;BME280;59568;52.128;5.434;2023-05-18T00:35:53;103019.47;;;5.82;72.06
71716;BME280;59568;52.128;5.434;2023-05-18T00:38:19;103021.47;;;5.80;72.10
71716;BME280;59568;52.128;5.434;2023-05-18T00:40:46;103019.84;;;5.79;72.41
71716;BME280;59568;52.128;5.434;2023-05-18T00:43:13;103021.03;;;5.76;72.42
71716;BME280;59568;52.128;5.434;2023-05-18T00:45:40;103022.25;;;5.74;72.34
71716;BME280;59568;52.128;5.434;2023-05-18T00:48:07;103020.63;;;5.73;72.09
71716;BME280;59568;52.128;5.434;2023-05-18T00:50:34;103026.25;;;5.70;72.32
71716;BME280;59568;52.128;5.434;2023-05-18T00:53:02;103022.03;;;5.69;72.45
71716;BME280;59568;52.128;5.434;2023-05-18T00:55:29;103023.25;;;5.66;72.13
71716;BME280;59568;52.128;5.434;2023-05-18T00:57:57;103020.84;;;5.65;72.44
71716;BME280;59568;52.128;5.434;2023-05-18T01:00:28;103020.22;;;5.63;72.54
71716;BME280;59568;52.128;5.434;2023-05-18T01:02:55;103019.63;;;5.60;72.25
71716;BME280;59568;52.128;5.434;2023-05-18T01:05:23;103019.81;;;5.59;72.44
71716;BME280;59568;52.128;5.434;2023-05-18T01:07:50;103022.63;;;5.57;72.78
71716;BME280;59568;52.128;5.434;2023-05-18T01:10:18;103020.63;;;5.53;72.93
71716;BME280;59568;52.128;5.434;2023-05-18T01:15:38;103022.78;;;5.49;72.73
71716;BME280;59568;52.128;5.434;2023-05-18T01:18:26;103024.59;;;5.49;72.62
71716;BME280;59568;52.128;5.434;2023-05-18T01:24:11;103026.19;;;5.43;72.85
71716;BME280;59568;52.128;5.434;2023-05-18T01:26:48;103023.81;;;5.42;72.87
71716;BME280;59568;52.128;5.434;2023-05-18T01:29:16;103024.97;;;5.39;73.23
71716;BME280;59568;52.128;5.434;2023-05-18T01:31:43;103026.34;;;5.35;73.25
71716;BME280;59568;52.128;5.434;2023-05-18T01:34:10;103022.97;;;5.34;73.33
71716;BME280;59568;52.128;5.434;2023-05-18T01:36:37;103025.16;;;5.31;73.64
71716;BME280;59568;52.128;5.434;2023-05-18T01:39:04;103029.34;;;5.32;73.77
71716;BME280;59568;52.128;5.434;2023-05-18T01:41:38;103027.75;;;5.31;73.60
71716;BME280;59568;52.128;5.434;2023-05-18T01:44:13;103025.38;;;5.29;73.75
71716;BME280;59568;52.128;5.434;2023-05-18T01:49:30;103029.13;;;5.27;73.91
71716;BME280;59568;52.128;5.434;2023-05-18T01:52:02;103029.34;;;5.25;73.91
71716;BME280;59568;52.128;5.434;2023-05-18T01:54:31;103023.34;;;5.25;74.17
71716;BME280;59568;52.128;5.434;2023-05-18T01:56:59;103026.53;;;5.20;74.31
71716;BME280;59568;52.128;5.434;2023-05-18T01:59:27;103029.31;;;5.18;74.60
71716;BME280;59568;52.128;5.434;2023-05-18T02:02:00;103029.31;;;5.18;74.38
71716;BME280;59568;52.128;5.434;2023-05-18T02:04:27;103027.13;;;5.15;74.13
71716;BME280;59568;52.128;5.434;2023-05-18T02:06:54;103024.72;;;5.14;74.41
71716;BME280;59568;52.128;5.434;2023-05-18T02:09:21;103023.72;;;5.15;74.31
71716;BME280;59568;52.128;5.434;2023-05-18T02:11:48;103022.91;;;5.14;74.17
71716;BME280;59568;52.128;5.434;2023-05-18T02:14:16;103021.34;;;5.13;74.20
71716;BME280;59568;52.128;5.434;2023-05-18T02:16:42;103021.34;;;5.13;74.00
71716;BME280;59568;52.128;5.434;2023-05-18T02:19:13;103024.91;;;5.12;74.16
71716;BME280;59568;52.128;5.434;2023-05-18T02:21:40;103028.50;;;5.11;74.23
71716;BME280;59568;52.128;5.434;2023-05-18T02:24:09;103031.09;;;5.11;74.67
71716;BME280;59568;52.128;5.434;2023-05-18T02:26:37;103032.06;;;5.10;74.42
71716;BME280;59568;52.128;5.434;2023-05-18T02:29:05;103036.03;;;5.06;74.71
71716;BME280;59568;52.128;5.434;2023-05-18T02:31:32;103033.63;;;5.05;74.72
71716;BME280;59568;52.128;5.434;2023-05-18T02:33:59;103032.84;;;5.04;74.95
71716;BME280;59568;52.128;5.434;2023-05-18T02:36:27;103025.47;;;5.01;75.20
71716;BME280;59568;52.128;5.434;2023-05-18T02:38:54;103026.09;;;5.03;75.14
71716;BME280;59568;52.128;5.434;2023-05-18T02:41:20;103021.09;;;5.02;74.91
71716;BME280;59568;52.128;5.434;2023-05-18T02:43:48;103029.03;;;5.00;75.10
71716;BME280;59568;52.128;5.434;2023-05-18T02:46:15;103029.41;;;4.97;75.35
71716;BME280;59568;52.128;5.434;2023-05-18T02:48:42;103020.44;;;4.93;75.44
71716;BME280;59568;52.128;5.434;2023-05-18T02:51:11;103023.25;;;4.91;75.49
71716;BME280;59568;52.128;5.434;2023-05-18T02:53:38;103025.00;;;4.91;75.38
71716;BME280;59568;52.128;5.434;2023-05-18T02:56:05;103021.63;;;4.90;75.57
71716;BME280;59568;52.128;5.434;2023-05-18T02:58:32;103021.03;;;4.88;75.00
71716;BME280;59568;52.128;5.434;2023-05-18T03:00:59;103024.81;;;4.86;75.13
71716;BME280;59568;52.128;5.434;2023-05-18T03:03:26;103034.56;;;4.84;74.91
71716;BME280;59568;52.128;5.434;2023-05-18T03:05:53;103020.81;;;4.83;75.18
71716;BME280;59568;52.128;5.434;2023-05-18T03:08:20;103022.59;;;4.83;75.16
71716;BME280;59568;52.128;5.434;2023-05-18T03:10:53;103023.59;;;4.82;75.21
71716;BME280;59568;52.128;5.434;2023-05-18T03:13:20;103021.19;;;4.80;74.98
71716;BME280;59568;52.128;5.434;2023-05-18T03:15:47;103023.97;;;4.78;74.90
71716;BME280;59568;52.128;5.434;2023-05-18T03:18:15;103034.31;;;4.78;74.95
71716;BME280;59568;52.128;5.434;2023-05-18T03:20:42;103034.31;;;4.78;74.99
71716;BME280;59568;52.128;5.434;2023-05-18T03:23:09;103031.13;;;4.76;75.16
71716;BME280;59568;52.128;5.434;2023-05-18T03:25:36;103029.72;;;4.74;75.42
71716;BME280;59568;52.128;5.434;2023-05-18T03:28:03;103029.13;;;4.72;75.89
71716;BME280;59568;52.128;5.434;2023-05-18T03:30:34;103031.09;;;4.70;75.42
71716;BME280;59568;52.128;5.434;2023-05-18T03:33:01;103030.31;;;4.69;75.35
71716;BME280;59568;52.128;5.434;2023-05-18T03:35:28;103032.06;;;4.69;75.32
71716;BME280;59568;52.128;5.434;2023-05-18T03:37:55;103023.53;;;4.68;75.38
71716;BME280;59568;52.128;5.434;2023-05-18T03:40:22;103030.50;;;4.68;75.18
71716;BME280;59568;52.128;5.434;2023-05-18T03:42:50;103027.13;;;4.67;75.40
71716;BME280;59568;52.128;5.434;2023-05-18T03:45:17;103031.06;;;4.63;75.63
71716;BME280;59568;52.128;5.434;2023-05-18T03:47:44;103035.44;;;4.63;75.39
71716;BME280;59568;52.128;5.434;2023-05-18T03:50:11;103026.69;;;4.64;75.13
71716;BME280;59568;52.128;5.434;2023-05-18T03:52:39;103028.28;;;4.65;75.27
71716;BME280;59568;52.128;5.434;2023-05-18T03:55:07;103036.88;;;4.65;75.37
71716;BME280;59568;52.128;5.434;2023-05-18T03:57:34;103036.25;;;4.63;75.50
71716;BME280;59568;52.128;5.434;2023-05-18T04:00:03;103032.66;;;4.64;75.46
71716;BME280;59568;52.128;5.434;2023-05-18T04:02:32;103035.84;;;4.66;75.49
71716;BME280;59568;52.128;5.434;2023-05-18T04:04:59;103033.88;;;4.68;75.42
71716;BME280;59568;52.128;5.434;2023-05-18T04:07:26;103037.06;;;4.70;75.54
71716;BME280;59568;52.128;5.434;2023-05-18T04:09:54;103034.91;;;4.74;75.44
71716;BME280;59568;52.128;5.434;2023-05-18T04:12:22;103041.50;;;4.76;75.24
71716;BME280;59568;52.128;5.434;2023-05-18T04:14:49;103046.31;;;4.79;75.06
71716;BME280;59568;52.128;5.434;2023-05-18T04:17:17;103034.31;;;4.78;75.13
71716;BME280;59568;52.128;5.434;2023-05-18T04:19:48;103047.88;;;4.80;75.28
71716;BME280;59568;52.128;5.434;2023-05-18T04:22:16;103044.75;;;4.85;75.02
71716;BME280;59568;52.128;5.434;2023-05-18T04:24:42;103050.31;;;4.89;75.40
71716;BME280;59568;52.128;5.434;2023-05-18T04:27:13;103051.16;;;4.96;74.92
71716;BME280;59568;52.128;5.434;2023-05-18T04:29:40;103045.59;;;4.99;75.09
71716;BME280;59568;52.128;5.434;2023-05-18T04:32:09;103052.00;;;5.03;74.92
71716;BME280;59568;52.128;5.434;2023-05-18T04:34:36;103054.38;;;5.05;75.18
71716;BME280;59568;52.128;5.434;2023-05-18T04:37:04;103051.59;;;5.13;75.08
71716;BME280;59568;52.128;5.434;2023-05-18T04:39:32;103056.97;;;5.66;75.82
71716;BME280;59568;52.128;5.434;2023-05-18T04:42:00;103048.75;;;6.56;74.41
71716;BME280;59568;52.128;5.434;2023-05-18T04:44:30;103066.34;;;6.60;72.81
71716;BME280;59568;52.128;5.434;2023-05-18T04:47:00;103060.75;;;6.57;72.56
71716;BME280;59568;52.128;5.434;2023-05-18T04:49:27;103062.13;;;6.73;71.77
71716;BME280;59568;52.128;5.434;2023-05-18T04:51:55;103063.47;;;6.82;71.35
71716;BME280;59568;52.128;5.434;2023-05-18T04:54:23;103064.06;;;6.91;71.44
71716;BME280;59568;52.128;5.434;2023-05-18T04:56:51;103068.00;;;7.07;70.91
71716;BME280;59568;52.128;5.434;2023-05-18T04:59:18;103074.34;;;7.17;70.61
71716;BME280;59568;52.128;5.434;2023-05-18T05:01:45;103075.19;;;7.11;70.12
71716;BME280;59568;52.128;5.434;2023-05-18T05:04:12;103079.59;;;7.04;70.26
71716;BME280;59568;52.128;5.434;2023-05-18T05:06:39;103080.41;;;7.05;70.75
71716;BME280;59568;52.128;5.434;2023-05-18T05:09:06;103074.78;;;7.14;70.44
71716;BME280;59568;52.128;5.434;2023-05-18T05:11:33;103074.66;;;7.41;71.49
71716;BME280;59568;52.128;5.434;2023-05-18T05:14:01;103077.34;;;7.85;70.08
71716;BME280;59568;52.128;5.434;2023-05-18T05:16:28;103079.59;;;8.31;69.44
71716;BME280;59568;52.128;5.434;2023-05-18T05:18:55;103076.19;;;8.93;68.18
71716;BME280;59568;52.128;5.434;2023-05-18T05:21:23;103071.91;;;9.29;67.51
71716;BME280;59568;52.128;5.434;2023-05-18T05:23:49;103075.88;;;9.62;66.47
71716;BME280;59568;52.128;5.434;2023-05-18T05:26:17;103070.81;;;9.78;65.28
71716;BME280;59568;52.128;5.434;2023-05-18T05:28:44;103062.00;;;9.49;64.51
71716;BME280;59568;52.128;5.434;2023-05-18T05:31:11;103076.91;;;9.60;65.57
71716;BME280;59568;52.128;5.434;2023-05-18T05:33:38;103072.22;;;10.52;64.81
71716;BME280;59568;52.128;5.434;2023-05-18T05:36:05;103076.13;;;11.18;61.17
71716;BME280;59568;52.128;5.434;2023-05-18T05:38:33;103069.56;;;10.75;60.51
71716;BME280;59568;52.128;5.434;2023-05-18T05:41:00;103069.16;;;10.31;61.41
71716;BME280;59568;52.128;5.434;2023-05-18T05:43:27;103066.28;;;9.97;61.58
71716;BME280;59568;52.128;5.434;2023-05-18T05:45:54;103074.13;;;9.97;62.37
71716;BME280;59568;52.128;5.434;2023-05-18T05:48:21;103069.13;;;10.08;63.24
71716;BME280;59568;52.128;5.434;2023-05-18T05:50:48;103074.13;;;10.21;61.85
71716;BME280;59568;52.128;5.434;2023-05-18T05:53:15;103078.31;;;10.22;62.06
71716;BME280;59568;52.128;5.434;2023-05-18T05:55:46;103071.09;;;10.24;62.04
71716;BME280;59568;52.128;5.434;2023-05-18T05:58:13;103072.00;;;10.42;61.99
71716;BME280;59568;52.128;5.434;2023-05-18T06:00:40;103068.00;;;10.63;61.24
71716;BME280;59568;52.128;5.434;2023-05-18T06:03:08;103068.47;;;10.36;60.64
71716;BME280;59568;52.128;5.434;2023-05-18T06:05:35;103065.94;;;10.29;61.35
71716;BME280;59568;52.128;5.434;2023-05-18T06:08:02;103073.00;;;10.05;60.95
71716;BME280;59568;52.128;5.434;2023-05-18T06:10:30;103072.75;;;9.83;61.49
71716;BME280;59568;52.128;5.434;2023-05-18T06:12:57;103071.53;;;10.21;61.22
71716;BME280;59568;52.128;5.434;2023-05-18T06:15:24;103075.75;;;10.34;60.72
71716;BME280;59568;52.128;5.434;2023-05-18T06:17:51;103082.84;;;10.74;60.61
71716;BME280;59568;52.128;5.434;2023-05-18T06:20:18;103078.56;;;11.54;60.56
71716;BME280;59568;52.128;5.434;2023-05-18T06:22:45;103079.34;;;12.39;58.73
71716;BME280;59568;52.128;5.434;2023-05-18T06:25:12;103087.13;;;13.22;57.82
71716;BME280;59568;52.128;5.434;2023-05-18T06:27:39;103084.88;;;13.63;54.68
71716;BME280;59568;52.128;5.434;2023-05-18T06:30:08;103089.91;;;13.65;54.52
71716;BME280;59568;52.128;5.434;2023-05-18T06:32:36;103085.66;;;13.58;52.88
71716;BME280;59568;52.128;5.434;2023-05-18T06:35:04;103084.34;;;13.34;53.46
71716;BME280;59568;52.128;5.434;2023-05-18T06:37:32;103077.72;;;13.53;53.63
71716;BME280;59568;52.128;5.434;2023-05-18T06:39:59;103091.66;;;13.05;53.22
71716;BME280;59568;52.128;5.434;2023-05-18T06:42:25;103090.66;;;12.62;53.69
71716;BME280;59568;52.128;5.434;2023-05-18T06:44:52;103089.50;;;12.74;53.40
71716;BME280;59568;52.128;5.434;2023-05-18T06:47:19;103091.59;;;12.77;52.76
71716;BME280;59568;52.128;5.434;2023-05-18T06:49:46;103094.84;;;12.63;53.14
71716;BME280;59568;52.128;5.434;2023-05-18T06:52:13;103097.41;;;12.57;53.60
71716;BME280;59568;52.128;5.434;2023-05-18T06:54:40;103092.78;;;12.65;53.58
71716;BME280;59568;52.128;5.434;2023-05-18T06:57:07;103104.69;;;12.94;54.60
71716;BME280;59568;52.128;5.434;2023-05-18T06:59:34;103102.06;;;13.22;53.21
71716;BME280;59568;52.128;5.434;2023-05-18T07:02:00;103097.44;;;13.29;51.73
71716;BME280;59568;52.128;5.434;2023-05-18T07:04:28;103097.63;;;13.22;51.68
71716;BME280;59568;52.128;5.434;2023-05-18T07:06:55;103106.13;;;13.07;51.40
71716;BME280;59568;52.128;5.434;2023-05-18T07:09:22;103101.38;;;13.04;51.76
71716;BME280;59568;52.128;5.434;2023-05-18T07:11:49;103103.19;;;13.53;52.40
71716;BME280;59568;52.128;5.434;2023-05-18T07:14:16;103110.91;;;13.65;49.93
71716;BME280;59568;52.128;5.434;2023-05-18T07:16:43;103107.59;;;13.47;50.93
71716;BME280;59568;52.128;5.434;2023-05-18T07:19:12;103100.50;;;13.48;51.07
71716;BME280;59568;52.128;5.434;2023-05-18T07:21:40;103115.94;;;13.39;50.67
71716;BME280;59568;52.128;5.434;2023-05-18T07:24:07;103107.63;;;12.98;49.80
71716;BME280;59568;52.128;5.434;2023-05-18T07:26:34;103108.31;;;12.71;51.41
71716;BME280;59568;52.128;5.434;2023-05-18T07:29:01;103105.09;;;12.64;51.68
71716;BME280;59568;52.128;5.434;2023-05-18T07:31:28;103109.06;;;12.67;53.10
71716;BME280;59568;52.128;5.434;2023-05-18T07:33:55;103110.34;;;12.64;53.11
71716;BME280;59568;52.128;5.434;2023-05-18T07:36:22;103112.97;;;12.64;52.93
71716;BME280;59568;52.128;5.434;2023-05-18T07:38:51;103114.63;;;12.70;53.15
71716;BME280;59568;52.128;5.434;2023-05-18T07:41:21;103113.53;;;12.66;52.15
71716;BME280;59568;52.128;5.434;2023-05-18T07:43:51;103121.97;;;12.51;51.83
71716;BME280;59568;52.128;5.434;2023-05-18T07:46:18;103112.22;;;12.47;52.83
71716;BME280;59568;52.128;5.434;2023-05-18T07:48:45;103109.84;;;12.45;53.40
71716;BME280;59568;52.128;5.434;2023-05-18T07:51:12;103114.38;;;12.50;53.42
71716;BME280;59568;52.128;5.434;2023-05-18T07:53:39;103115.84;;;12.63;55.16
71716;BME280;59568;52.128;5.434;2023-05-18T07:56:07;103127.53;;;12.55;53.26
71716;BME280;59568;52.128;5.434;2023-05-18T07:58:35;103124.31;;;12.48;53.08
71716;BME280;59568;52.128;5.434;2023-05-18T08:01:02;103115.66;;;12.30;52.85
71716;BME280;59568;52.128;5.434;2023-05-18T08:03:29;103133.06;;;12.36;53.62
71716;BME280;59568;52.128;5.434;2023-05-18T08:05:56;103122.88;;;12.40;52.55
71716;BME280;59568;52.128;5.434;2023-05-18T08:08:23;103123.03;;;12.33;52.56
71716;BME280;59568;52.128;5.434;2023-05-18T08:10:50;103124.56;;;12.29;53.08
71716;BME280;59568;52.128;5.434;2023-05-18T08:13:18;103120.19;;;12.35;53.59
71716;BME280;59568;52.128;5.434;2023-05-18T08:15:45;103123.69;;;12.63;54.43
71716;BME280;59568;52.128;5.434;2023-05-18T08:18:25;103124.34;;;12.70;53.27
71716;BME280;59568;52.128;5.434;2023-05-18T08:20:52;103123.84;;;12.73;51.81
71716;BME280;59568;52.128;5.434;2023-05-18T08:23:19;103129.75;;;12.85;52.36
71716;BME280;59568;52.128;5.434;2023-05-18T08:25:46;103129.41;;;12.76;51.97
71716;BME280;59568;52.128;5.434;2023-05-18T08:28:13;103133.59;;;12.77;51.90
71716;BME280;59568;52.128;5.434;2023-05-18T08:30:40;103128.06;;;12.96;52.35
71716;BME280;59568;52.128;5.434;2023-05-18T08:33:07;103122.81;;;13.45;52.34
71716;BME280;59568;52.128;5.434;2023-05-18T08:35:35;103133.41;;;13.55;50.27
71716;BME280;59568;52.128;5.434;2023-05-18T08:38:02;103135.91;;;13.40;50.72
71716;BME280;59568;52.128;5.434;2023-05-18T08:40:46;103129.53;;;13.63;52.27
71716;BME280;59568;52.128;5.434;2023-05-18T08:43:20;103121.16;;;13.98;50.74
71716;BME280;59568;52.128;5.434;2023-05-18T08:45:56;103115.75;;;14.15;50.31
71716;BME280;59568;52.128;5.434;2023-05-18T08:48:26;103114.44;;;14.18;50.30
71716;BME280;59568;52.128;5.434;2023-05-18T08:50:57;103108.22;;;14.34;49.19
71716;BME280;59568;52.128;5.434;2023-05-18T08:53:24;103101.91;;;14.83;50.31
71716;BME280;59568;52.128;5.434;2023-05-18T08:55:56;103109.91;;;15.34;48.95
71716;BME280;59568;52.128;5.434;2023-05-18T08:58:31;103110.97;;;15.49;47.65
71716;BME280;59568;52.128;5.434;2023-05-18T09:01:00;103111.22;;;15.42;48.94
71716;BME280;59568;52.128;5.434;2023-05-18T09:03:28;103110.16;;;15.43;47.82
71716;BME280;59568;52.128;5.434;2023-05-18T09:05:58;103104.88;;;15.33;47.39
71716;BME280;59568;52.128;5.434;2023-05-18T09:08:27;103099.34;;;15.24;48.07
71716;BME280;59568;52.128;5.434;2023-05-18T09:10:55;103096.69;;;15.09;48.09
71716;BME280;59568;52.128;5.434;2023-05-18T09:13:23;103095.63;;;15.15;46.92
71716;BME280;59568;52.128;5.434;2023-05-18T09:15:50;103088.56;;;15.15;46.32
71716;BME280;59568;52.128;5.434;2023-05-18T09:18:17;103095.28;;;14.81;47.63
71716;BME280;59568;52.128;5.434;2023-05-18T09:20:46;103087.41;;;14.75;47.63
71716;BME280;59568;52.128;5.434;2023-05-18T09:23:14;103084.19;;;14.68;48.60
71716;BME280;59568;52.128;5.434;2023-05-18T09:25:43;103091.41;;;14.41;48.39
71716;BME280;59568;52.128;5.434;2023-05-18T09:28:12;103089.31;;;14.37;47.06
71716;BME280;59568;52.128;5.434;2023-05-18T09:30:41;103082.84;;;14.61;47.84
71716;BME280;59568;52.128;5.434;2023-05-18T09:33:16;103073.72;;;14.73;48.73
71716;BME280;59568;52.128;5.434;2023-05-18T09:35:44;103080.34;;;15.02;49.12
71716;BME280;59568;52.128;5.434;2023-05-18T09:38:16;103081.97;;;15.28;48.17
71716;BME280;59568;52.128;5.434;2023-05-18T09:40:49;103071.72;;;15.57;47.16
71716;BME280;59568;52.128;5.434;2023-05-18T09:43:16;103066.44;;;15.68;49.48
71716;BME280;59568;52.128;5.434;2023-05-18T09:45:49;103074.84;;;15.95;46.72
71716;BME280;59568;52.128;5.434;2023-05-18T09:48:16;103072.78;;;15.62;47.95
71716;BME280;59568;52.128;5.434;2023-05-18T09:50:44;103073.28;;;15.89;46.98
71716;BME280;59568;52.128;5.434;2023-05-18T09:53:12;103074.34;;;15.73;46.03
71716;BME280;59568;52.128;5.434;2023-05-18T09:55:49;103074.63;;;15.56;45.73
71716;BME280;59568;52.128;5.434;2023-05-18T09:58:16;103073.31;;;15.64;46.51
71716;BME280;59568;52.128;5.434;2023-05-18T10:00:46;103065.38;;;15.79;48.11
71716;BME280;59568;52.128;5.434;2023-05-18T10:03:22;103067.50;;;15.82;45.65
71716;BME280;59568;52.128;5.434;2023-05-18T10:05:49;103065.91;;;15.71;44.58
71716;BME280;59568;52.128;5.434;2023-05-18T10:08:17;103069.06;;;15.52;46.36
71716;BME280;59568;52.128;5.434;2023-05-18T10:10:45;103062.75;;;15.79;45.34
71716;BME280;59568;52.128;5.434;2023-05-18T10:13:16;103055.34;;;15.91;48.24
71716;BME280;59568;52.128;5.434;2023-05-18T10:15:50;103056.81;;;16.33;45.90
71716;BME280;59568;52.128;5.434;2023-05-18T10:18:23;103054.16;;;16.33;46.77
71716;BME280;59568;52.128;5.434;2023-05-18T10:20:52;103049.75;;;16.18;46.09
71716;BME280;59568;52.128;5.434;2023-05-18T10:23:21;103050.53;;;16.19;46.31
71716;BME280;59568;52.128;5.434;2023-05-18T10:25:50;103045.69;;;16.42;46.46
71716;BME280;59568;52.128;5.434;2023-05-18T10:28:22;103049.75;;;16.18;45.84
71716;BME280;59568;52.128;5.434;2023-05-18T10:30:55;103050.03;;;16.07;46.27
71716;BME280;59568;52.128;5.434;2023-05-18T10:33:26;103047.38;;;16.17;46.77
71716;BME280;59568;52.128;5.434;2023-05-18T10:35:56;103037.84;;;16.26;47.59
71716;BME280;59568;52.128;5.434;2023-05-18T10:38:25;103035.13;;;16.47;48.29
71716;BME280;59568;52.128;5.434;2023-05-18T10:41:04;103039.47;;;16.82;46.57
71716;BME280;59568;52.128;5.434;2023-05-18T10:43:32;103043.94;;;16.82;44.69
71716;BME280;59568;52.128;5.434;2023-05-18T10:46:00;103040.81;;;16.69;44.15
71716;BME280;59568;52.128;5.434;2023-05-18T10:48:28;103038.22;;;16.59;44.91
71716;BME280;59568;52.128;5.434;2023-05-18T10:50:56;103036.03;;;16.71;45.20
71716;BME280;59568;52.128;5.434;2023-05-18T10:53:25;103032.00;;;16.89;45.93
71716;BME280;59568;52.128;5.434;2023-05-18T10:55:53;103031.16;;;16.99;44.29
71716;BME280;59568;52.128;5.434;2023-05-18T10:58:23;103035.91;;;16.97;43.83
71716;BME280;59568;52.128;5.434;2023-05-18T11:00:53;103037.13;;;17.10;43.88
71716;BME280;59568;52.128;5.434;2023-05-18T11:03:22;103029.03;;;17.01;42.22
71716;BME280;59568;52.128;5.434;2023-05-18T11:06:11;103028.06;;;17.21;44.02
71716;BME280;59568;52.128;5.434;2023-05-18T11:08:49;103032.84;;;17.19;44.88
71716;BME280;59568;52.128;5.434;2023-05-18T11:11:16;103031.06;;;17.09;44.73
71716;BME280;59568;52.128;5.434;2023-05-18T11:13:49;103016.78;;;17.45;47.44
71716;BME280;59568;52.128;5.434;2023-05-18T11:16:18;103024.31;;;17.56;43.88
71716;BME280;59568;52.128;5.434;2023-05-18T11:18:47;103025.78;;;17.44;41.79
71716;BME280;59568;52.128;5.434;2023-05-18T11:21:28;103023.97;;;17.39;42.83
71716;BME280;59568;52.128;5.434;2023-05-18T11:24:31;103015.28;;;17.33;42.66
71716;BME280;59568;52.128;5.434;2023-05-18T11:27:11;103005.88;;;17.51;44.94
71716;BME280;59568;52.128;5.434;2023-05-18T11:29:41;103002.63;;;17.60;43.26
71716;BME280;59568;52.128;5.434;2023-05-18T11:32:26;102999.34;;;17.44;44.37
71716;BME280;59568;52.128;5.434;2023-05-18T11:34:57;103007.06;;;17.93;43.85
71716;BME280;59568;52.128;5.434;2023-05-18T11:37:54;102989.03;;;17.95;43.97
71716;BME280;59568;52.128;5.434;2023-05-18T11:40:44;102997.47;;;17.98;42.90
71716;BME280;59568;52.128;5.434;2023-05-18T11:43:22;103001.03;;;17.88;42.76
71716;BME280;59568;52.128;5.434;2023-05-18T11:45:54;103001.03;;;17.83;42.61
71716;BME280;59568;52.128;5.434;2023-05-18T11:48:25;102998.38;;;18.12;40.80
71716;BME280;59568;52.128;5.434;2023-05-18T11:50:56;102995.00;;;18.06;42.21
71716;BME280;59568;52.128;5.434;2023-05-18T11:53:25;102996.03;;;18.29;42.20
71716;BME280;59568;52.128;5.434;2023-05-18T11:55:53;102988.88;;;18.30;44.17
71716;BME280;59568;52.128;5.434;2023-05-18T11:58:23;102981.28;;;18.42;43.50
71716;BME280;59568;52.128;5.434;2023-05-18T12:00:50;102988.22;;;18.57;43.52
71716;BME280;59568;52.128;5.434;2023-05-18T12:03:22;102985.28;;;18.59;42.20
71716;BME280;59568;52.128;5.434;2023-05-18T12:05:52;102977.63;;;18.95;43.56
71716;BME280;59568;52.128;5.434;2023-05-18T12:08:20;102973.97;;;19.24;42.80
71716;BME280;59568;52.128;5.434;2023-05-18T12:10:48;102970.22;;;19.25;41.06
71716;BME280;59568;52.128;5.434;2023-05-18T12:13:16;102970.66;;;18.99;38.67
71716;BME280;59568;52.128;5.434;2023-05-18T12:15:44;102971.50;;;18.43;40.69
71716;BME280;59568;52.128;5.434;2023-05-18T12:18:12;102958.03;;;18.58;41.63
71716;BME280;59568;52.128;5.434;2023-05-18T12:20:40;102962.50;;;18.76;41.24
71716;BME280;59568;52.128;5.434;2023-05-18T12:23:07;102957.59;;;18.89;40.99
71716;BME280;59568;52.128;5.434;2023-05-18T12:25:34;102961.78;;;19.23;42.39
71716;BME280;59568;52.128;5.434;2023-05-18T12:28:02;102967.81;;;18.95;40.05
71716;BME280;59568;52.128;5.434;2023-05-18T12:30:30;102961.31;;;18.88;40.63
71716;BME280;59568;52.128;5.434;2023-05-18T12:33:02;102956.03;;;18.88;40.98
71716;BME280;59568;52.128;5.434;2023-05-18T12:35:30;102949.97;;;19.15;40.70
71716;BME280;59568;52.128;5.434;2023-05-18T12:37:58;102956.66;;;19.12;40.23
71716;BME280;59568;52.128;5.434;2023-05-18T12:40:27;102950.13;;;18.91;40.42
71716;BME280;59568;52.128;5.434;2023-05-18T12:43:03;102949.13;;;19.20;42.71
71716;BME280;59568;52.128;5.434;2023-05-18T12:45:32;102950.22;;;19.46;40.13
71716;BME280;59568;52.128;5.434;2023-05-18T12:48:03;102942.28;;;19.46;40.20
71716;BME280;59568;52.128;5.434;2023-05-18T12:50:31;102940.78;;;19.68;42.33
71716;BME280;59568;52.128;5.434;2023-05-18T12:52:58;102940.00;;;19.95;39.43
71716;BME280;59568;52.128;5.434;2023-05-18T12:55:28;102937.47;;;19.76;38.87
71716;BME280;59568;52.128;5.434;2023-05-18T12:58:04;102941.78;;;19.30;39.21
71716;BME280;59568;52.128;5.434;2023-05-18T13:00:32;102942.97;;;19.52;39.16
71716;BME280;59568;52.128;5.434;2023-05-18T13:03:09;102934.31;;;19.46;38.78
71716;BME280;59568;52.128;5.434;2023-05-18T13:05:42;102928.53;;;19.58;41.84
71716;BME280;59568;52.128;5.434;2023-05-18T13:08:15;102927.03;;;19.80;38.43
71716;BME280;59568;52.128;5.434;2023-05-18T13:10:47;102927.06;;;19.52;38.67
71716;BME280;59568;52.128;5.434;2023-05-18T13:13:31;102932.16;;;19.34;39.27